sensor_id;sensor_type;location;lat;lon;timestamp;P1;durP1;ratioP1;P2;durP2;ratioP2
38725;SDS011;24474;48.906;8.808;2023-07-20T00:02:23;3.05;;;1.30;;
38725;SDS011;24474;48.906;8.808;2023-07-20T00:04:49;3.15;;;1.50;;
38725;SDS011;24474;48.906;8.808;2023-07-20T00:07:15;2.10;;;1.23;;
38725;SDS011;24474;48.906;8.808;2023-07-20T00:09:40;7.72;;;1.30;;
38725;SDS011;24474;48.906;8.808;2023-07-20T00:12:06;2.45;;;1.40;;
38725;SDS011;24474;48.906;8.808;2023-07-20T00:14:32;2.35;;;1.10;;
38725;SDS011;24474;48.906;8.808;2023-07-20T00:16:57;3.17;;;1.45;;
38725;SDS011;24474;48.906;8.808;2023-07-20T00:19:23;3.28;;;1.10;;
38725;SDS011;24474;48.906;8.808;2023-07-20T00:21:51;2.85;;;1.42;;
38725;SDS011;24474;48.906;8.808;2023-07-20T00:24:17;3.05;;;1.40;;
38725;SDS011;24474;48.906;8.808;2023-07-20T00:26:43;3.45;;;1.50;;
38725;SDS011;24474;48.906;8.808;2023-07-20T00:29:08;3.55;;;1.20;;
38725;SDS011;24474;48.906;8.808;2023-07-20T00:31:34;3.33;;;1.40;;
38725;SDS011;24474;48.906;8.808;2023-07-20T00:34:02;2.72;;;1.17;;
38725;SDS011;24474;48.906;8.808;2023-07-20T00:36:31;2.72;;;1.40;;
38725;SDS011;24474;48.906;8.808;2023-07-20T00:38:56;4.38;;;1.27;;
38725;SDS011;24474;48.906;8.808;2023-07-20T00:41:22;7.43;;;1.50;;
38725;SDS011;24474;48.906;8.808;2023-07-20T00:43:54;2.42;;;1.30;;
38725;SDS011;24474;48.906;8.808;2023-07-20T00:46:21;5.25;;;1.73;;
38725;SDS011;24474;48.906;8.808;2023-07-20T00:48:49;2.58;;;1.25;;
38725;SDS011;24474;48.906;8.808;2023-07-20T00:51:15;2.42;;;1.42;;
38725;SDS011;24474;48.906;8.808;2023-07-20T00:53:40;3.92;;;1.30;;
38725;SDS011;24474;48.906;8.808;2023-07-20T00:56:06;3.47;;;1.45;;
38725;SDS011;24474;48.906;8.808;2023-07-20T00:58:33;4.35;;;1.67;;
38725;SDS011;24474;48.906;8.808;2023-07-20T01:01:00;2.67;;;1.40;;
38725;SDS011;24474;48.906;8.808;2023-07-20T01:03:25;2.78;;;1.50;;
38725;SDS011;24474;48.906;8.808;2023-07-20T01:05:54;3.83;;;1.70;;
38725;SDS011;24474;48.906;8.808;2023-07-20T01:08:37;2.63;;;1.30;;
38725;SDS011;24474;48.906;8.808;2023-07-20T01:11:24;3.47;;;1.60;;
38725;SDS011;24474;48.906;8.808;2023-07-20T01:14:00;8.57;;;1.42;;
38725;SDS011;24474;48.906;8.808;2023-07-20T01:16:27;2.28;;;1.55;;
38725;SDS011;24474;48.906;8.808;2023-07-20T01:18:53;2.08;;;1.40;;
38725;SDS011;24474;48.906;8.808;2023-07-20T01:21:21;3.42;;;1.38;;
38725;SDS011;24474;48.906;8.808;2023-07-20T01:24:04;3.17;;;1.63;;
38725;SDS011;24474;48.906;8.808;2023-07-20T01:27:20;3.38;;;1.60;;
38725;SDS011;24474;48.906;8.808;2023-07-20T01:32:35;3.22;;;1.55;;
38725;SDS011;24474;48.906;8.808;2023-07-20T01:35:05;4.32;;;1.70;;
38725;SDS011;24474;48.906;8.808;2023-07-20T01:37:31;3.33;;;1.70;;
38725;SDS011;24474;48.906;8.808;2023-07-20T01:39:59;3.45;;;1.48;;
38725;SDS011;24474;48.906;8.808;2023-07-20T01:42:25;4.55;;;1.58;;
38725;SDS011;24474;48.906;8.808;2023-07-20T01:44:52;4.35;;;1.67;;
38725;SDS011;24474;48.906;8.808;2023-07-20T01:47:19;3.67;;;1.70;;
38725;SDS011;24474;48.906;8.808;2023-07-20T01:49:45;4.82;;;1.67;;
38725;SDS011;24474;48.906;8.808;2023-07-20T01:52:11;3.33;;;1.70;;
38725;SDS011;24474;48.906;8.808;2023-07-20T01:54:39;3.25;;;1.60;;
38725;SDS011;24474;48.906;8.808;2023-07-20T01:57:05;3.83;;;1.60;;
38725;SDS011;24474;48.906;8.808;2023-07-20T01:59:32;4.13;;;1.70;;
38725;SDS011;24474;48.906;8.808;2023-07-20T02:01:58;2.50;;;1.67;;
38725;SDS011;24474;48.906;8.808;2023-07-20T02:04:24;4.32;;;1.65;;
38725;SDS011;24474;48.906;8.808;2023-07-20T02:06:51;3.10;;;1.80;;
38725;SDS011;24474;48.906;8.808;2023-07-20T02:09:18;5.25;;;1.50;;
38725;SDS011;24474;48.906;8.808;2023-07-20T02:11:45;2.58;;;1.77;;
38725;SDS011;24474;48.906;8.808;2023-07-20T02:14:11;2.92;;;1.70;;
38725;SDS011;24474;48.906;8.808;2023-07-20T02:16:39;3.28;;;1.65;;
38725;SDS011;24474;48.906;8.808;2023-07-20T02:19:06;5.53;;;1.60;;
38725;SDS011;24474;48.906;8.808;2023-07-20T02:21:32;3.22;;;1.80;;
38725;SDS011;24474;48.906;8.808;2023-07-20T02:23:57;4.47;;;1.85;;
38725;SDS011;24474;48.906;8.808;2023-07-20T02:26:25;4.25;;;1.75;;
38725;SDS011;24474;48.906;8.808;2023-07-20T02:28:51;2.80;;;1.60;;
38725;SDS011;24474;48.906;8.808;2023-07-20T02:31:17;4.40;;;2.20;;
38725;SDS011;24474;48.906;8.808;2023-07-20T02:33:44;3.50;;;1.90;;
38725;SDS011;24474;48.906;8.808;2023-07-20T02:36:10;3.83;;;1.80;;
38725;SDS011;24474;48.906;8.808;2023-07-20T02:38:37;4.45;;;1.75;;
38725;SDS011;24474;48.906;8.808;2023-07-20T02:41:03;2.90;;;1.60;;
38725;SDS011;24474;48.906;8.808;2023-07-20T02:43:29;3.40;;;1.80;;
38725;SDS011;24474;48.906;8.808;2023-07-20T02:45:55;2.97;;;1.70;;
38725;SDS011;24474;48.906;8.808;2023-07-20T02:48:21;3.00;;;1.65;;
38725;SDS011;24474;48.906;8.808;2023-07-20T02:50:48;3.55;;;1.70;;
38725;SDS011;24474;48.906;8.808;2023-07-20T02:53:13;2.78;;;1.73;;
38725;SDS011;24474;48.906;8.808;2023-07-20T02:55:39;2.97;;;1.67;;
38725;SDS011;24474;48.906;8.808;2023-07-20T02:58:06;2.88;;;1.70;;
38725;SDS011;24474;48.906;8.808;2023-07-20T03:00:33;2.65;;;1.80;;
38725;SDS011;24474;48.906;8.808;2023-07-20T03:02:59;3.95;;;1.77;;
38725;SDS011;24474;48.906;8.808;2023-07-20T03:05:25;5.20;;;1.85;;
38725;SDS011;24474;48.906;8.808;2023-07-20T03:07:51;4.85;;;1.75;;
38725;SDS011;24474;48.906;8.808;2023-07-20T03:10:18;3.88;;;1.88;;
38725;SDS011;24474;48.906;8.808;2023-07-20T03:12:43;3.92;;;2.00;;
38725;SDS011;24474;48.906;8.808;2023-07-20T03:15:09;3.90;;;2.00;;
38725;SDS011;24474;48.906;8.808;2023-07-20T03:17:36;5.68;;;2.00;;
38725;SDS011;24474;48.906;8.808;2023-07-20T03:20:02;3.30;;;1.83;;
38725;SDS011;24474;48.906;8.808;2023-07-20T03:22:29;4.72;;;1.90;;
38725;SDS011;24474;48.906;8.808;2023-07-20T03:24:55;5.50;;;1.60;;
38725;SDS011;24474;48.906;8.808;2023-07-20T03:27:22;3.83;;;1.92;;
38725;SDS011;24474;48.906;8.808;2023-07-20T03:29:47;2.55;;;1.70;;
38725;SDS011;24474;48.906;8.808;2023-07-20T03:32:14;4.82;;;1.77;;
38725;SDS011;24474;48.906;8.808;2023-07-20T03:34:41;4.72;;;1.88;;
38725;SDS011;24474;48.906;8.808;2023-07-20T03:37:08;4.82;;;1.65;;
38725;SDS011;24474;48.906;8.808;2023-07-20T03:39:33;3.97;;;1.98;;
38725;SDS011;24474;48.906;8.808;2023-07-20T03:42:00;3.20;;;1.90;;
38725;SDS011;24474;48.906;8.808;2023-07-20T03:44:27;3.25;;;1.90;;
38725;SDS011;24474;48.906;8.808;2023-07-20T03:46:54;2.90;;;1.80;;
38725;SDS011;24474;48.906;8.808;2023-07-20T03:49:22;2.28;;;1.45;;
38725;SDS011;24474;48.906;8.808;2023-07-20T03:51:49;4.57;;;1.98;;
38725;SDS011;24474;48.906;8.808;2023-07-20T03:54:16;3.63;;;1.75;;
38725;SDS011;24474;48.906;8.808;2023-07-20T03:56:45;2.88;;;1.67;;
38725;SDS011;24474;48.906;8.808;2023-07-20T03:59:11;2.92;;;1.55;;
38725;SDS011;24474;48.906;8.808;2023-07-20T04:01:37;3.63;;;1.77;;
38725;SDS011;24474;48.906;8.808;2023-07-20T04:04:06;4.60;;;1.90;;
38725;SDS011;24474;48.906;8.808;2023-07-20T04:06:33;5.45;;;2.03;;
38725;SDS011;24474;48.906;8.808;2023-07-20T04:09:00;3.28;;;1.92;;
38725;SDS011;24474;48.906;8.808;2023-07-20T04:11:26;4.00;;;2.00;;
38725;SDS011;24474;48.906;8.808;2023-07-20T04:13:52;4.32;;;2.03;;
38725;SDS011;24474;48.906;8.808;2023-07-20T04:16:18;3.50;;;2.08;;
38725;SDS011;24474;48.906;8.808;2023-07-20T04:18:45;3.95;;;1.88;;
38725;SDS011;24474;48.906;8.808;2023-07-20T04:21:12;4.38;;;1.98;;
38725;SDS011;24474;48.906;8.808;2023-07-20T04:23:37;5.63;;;2.47;;
38725;SDS011;24474;48.906;8.808;2023-07-20T04:26:04;3.90;;;2.08;;
38725;SDS011;24474;48.906;8.808;2023-07-20T04:28:31;4.03;;;2.10;;
38725;SDS011;24474;48.906;8.808;2023-07-20T04:31:09;3.35;;;1.80;;
38725;SDS011;24474;48.906;8.808;2023-07-20T04:36:06;4.47;;;1.67;;
38725;SDS011;24474;48.906;8.808;2023-07-20T04:38:35;4.68;;;2.00;;
38725;SDS011;24474;48.906;8.808;2023-07-20T04:41:02;3.38;;;1.50;;
38725;SDS011;24474;48.906;8.808;2023-07-20T04:43:29;3.80;;;1.70;;
38725;SDS011;24474;48.906;8.808;2023-07-20T04:45:56;3.50;;;1.40;;
38725;SDS011;24474;48.906;8.808;2023-07-20T04:48:23;3.53;;;1.75;;
38725;SDS011;24474;48.906;8.808;2023-07-20T04:50:49;3.92;;;1.70;;
38725;SDS011;24474;48.906;8.808;2023-07-20T04:53:16;5.50;;;2.05;;
38725;SDS011;24474;48.906;8.808;2023-07-20T04:55:49;3.75;;;1.90;;
38725;SDS011;24474;48.906;8.808;2023-07-20T04:58:19;3.47;;;1.90;;
38725;SDS011;24474;48.906;8.808;2023-07-20T05:00:48;3.88;;;1.65;;
38725;SDS011;24474;48.906;8.808;2023-07-20T05:03:16;3.63;;;1.90;;
38725;SDS011;24474;48.906;8.808;2023-07-20T05:05:42;5.47;;;1.83;;
38725;SDS011;24474;48.906;8.808;2023-07-20T05:08:09;3.72;;;1.58;;
38725;SDS011;24474;48.906;8.808;2023-07-20T05:10:35;3.00;;;1.52;;
38725;SDS011;24474;48.906;8.808;2023-07-20T05:13:02;4.72;;;1.90;;
38725;SDS011;24474;48.906;8.808;2023-07-20T05:15:27;3.83;;;1.60;;
38725;SDS011;24474;48.906;8.808;2023-07-20T05:17:56;2.88;;;1.70;;
38725;SDS011;24474;48.906;8.808;2023-07-20T05:20:25;3.20;;;1.65;;
38725;SDS011;24474;48.906;8.808;2023-07-20T05:22:52;3.10;;;1.50;;
38725;SDS011;24474;48.906;8.808;2023-07-20T05:25:18;3.20;;;1.45;;
38725;SDS011;24474;48.906;8.808;2023-07-20T05:27:47;4.45;;;1.70;;
38725;SDS011;24474;48.906;8.808;2023-07-20T05:30:14;3.78;;;1.60;;
38725;SDS011;24474;48.906;8.808;2023-07-20T05:32:43;3.13;;;1.77;;
38725;SDS011;24474;48.906;8.808;2023-07-20T05:35:14;5.47;;;1.80;;
38725;SDS011;24474;48.906;8.808;2023-07-20T05:37:42;3.47;;;1.70;;
38725;SDS011;24474;48.906;8.808;2023-07-20T05:40:07;2.97;;;1.55;;
38725;SDS011;24474;48.906;8.808;2023-07-20T05:42:35;6.38;;;1.90;;
38725;SDS011;24474;48.906;8.808;2023-07-20T05:45:01;2.83;;;1.80;;
38725;SDS011;24474;48.906;8.808;2023-07-20T05:47:26;4.35;;;1.58;;
38725;SDS011;24474;48.906;8.808;2023-07-20T05:49:52;3.17;;;1.52;;
38725;SDS011;24474;48.906;8.808;2023-07-20T05:52:18;2.30;;;1.35;;
38725;SDS011;24474;48.906;8.808;2023-07-20T05:54:43;2.75;;;1.50;;
38725;SDS011;24474;48.906;8.808;2023-07-20T05:57:09;5.13;;;1.58;;
38725;SDS011;24474;48.906;8.808;2023-07-20T05:59:35;6.60;;;1.55;;
38725;SDS011;24474;48.906;8.808;2023-07-20T06:02:01;4.20;;;1.70;;
38725;SDS011;24474;48.906;8.808;2023-07-20T06:04:27;2.63;;;1.58;;
38725;SDS011;24474;48.906;8.808;2023-07-20T06:06:52;4.32;;;1.65;;
38725;SDS011;24474;48.906;8.808;2023-07-20T06:09:18;4.45;;;1.45;;
38725;SDS011;24474;48.906;8.808;2023-07-20T06:11:44;6.13;;;1.63;;
38725;SDS011;24474;48.906;8.808;2023-07-20T06:14:09;4.53;;;1.58;;
38725;SDS011;24474;48.906;8.808;2023-07-20T06:16:35;2.72;;;1.58;;
38725;SDS011;24474;48.906;8.808;2023-07-20T06:19:01;3.78;;;1.50;;
38725;SDS011;24474;48.906;8.808;2023-07-20T06:21:27;3.83;;;1.30;;
38725;SDS011;24474;48.906;8.808;2023-07-20T06:23:52;3.47;;;1.50;;
38725;SDS011;24474;48.906;8.808;2023-07-20T06:26:18;4.35;;;1.70;;
38725;SDS011;24474;48.906;8.808;2023-07-20T06:28:44;7.40;;;1.65;;
38725;SDS011;24474;48.906;8.808;2023-07-20T06:31:10;5.22;;;1.67;;
38725;SDS011;24474;48.906;8.808;2023-07-20T06:33:36;2.53;;;1.33;;
38725;SDS011;24474;48.906;8.808;2023-07-20T06:36:02;3.38;;;1.60;;
38725;SDS011;24474;48.906;8.808;2023-07-20T06:38:28;5.22;;;1.73;;
38725;SDS011;24474;48.906;8.808;2023-07-20T06:40:54;4.05;;;1.55;;
38725;SDS011;24474;48.906;8.808;2023-07-20T06:43:23;5.22;;;1.70;;
38725;SDS011;24474;48.906;8.808;2023-07-20T06:45:52;3.63;;;1.77;;
38725;SDS011;24474;48.906;8.808;2023-07-20T06:48:21;3.25;;;1.60;;
38725;SDS011;24474;48.906;8.808;2023-07-20T06:50:47;3.97;;;1.60;;
38725;SDS011;24474;48.906;8.808;2023-07-20T06:53:12;3.88;;;1.70;;
38725;SDS011;24474;48.906;8.808;2023-07-20T06:55:38;4.68;;;1.70;;
38725;SDS011;24474;48.906;8.808;2023-07-20T06:58:04;4.07;;;1.85;;
38725;SDS011;24474;48.906;8.808;2023-07-20T07:00:30;5.55;;;1.77;;
38725;SDS011;24474;48.906;8.808;2023-07-20T07:02:55;5.35;;;1.60;;
38725;SDS011;24474;48.906;8.808;2023-07-20T07:05:21;3.95;;;1.52;;
38725;SDS011;24474;48.906;8.808;2023-07-20T07:07:47;4.03;;;1.73;;
38725;SDS011;24474;48.906;8.808;2023-07-20T07:10:12;3.13;;;1.60;;
38725;SDS011;24474;48.906;8.808;2023-07-20T07:12:39;4.80;;;1.60;;
38725;SDS011;24474;48.906;8.808;2023-07-20T07:15:04;6.50;;;1.60;;
38725;SDS011;24474;48.906;8.808;2023-07-20T07:17:33;4.55;;;1.67;;
38725;SDS011;24474;48.906;8.808;2023-07-20T07:20:00;7.60;;;1.92;;
38725;SDS011;24474;48.906;8.808;2023-07-20T07:22:25;4.57;;;1.77;;
38725;SDS011;24474;48.906;8.808;2023-07-20T07:24:51;2.50;;;1.45;;
38725;SDS011;24474;48.906;8.808;2023-07-20T07:27:17;3.95;;;1.42;;
38725;SDS011;24474;48.906;8.808;2023-07-20T07:29:42;4.97;;;1.63;;
38725;SDS011;24474;48.906;8.808;2023-07-20T07:32:11;4.53;;;1.73;;
38725;SDS011;24474;48.906;8.808;2023-07-20T07:34:37;5.47;;;1.70;;
38725;SDS011;24474;48.906;8.808;2023-07-20T07:37:06;4.32;;;1.63;;
38725;SDS011;24474;48.906;8.808;2023-07-20T07:39:32;2.40;;;1.58;;
38725;SDS011;24474;48.906;8.808;2023-07-20T07:41:58;3.65;;;1.90;;
38725;SDS011;24474;48.906;8.808;2023-07-20T07:44:24;7.47;;;1.58;;
38725;SDS011;24474;48.906;8.808;2023-07-20T07:46:50;5.57;;;1.80;;
38725;SDS011;24474;48.906;8.808;2023-07-20T07:49:16;4.93;;;1.80;;
38725;SDS011;24474;48.906;8.808;2023-07-20T07:51:41;4.00;;;1.75;;
38725;SDS011;24474;48.906;8.808;2023-07-20T07:54:07;3.00;;;1.52;;
38725;SDS011;24474;48.906;8.808;2023-07-20T07:56:33;3.83;;;2.00;;
38725;SDS011;24474;48.906;8.808;2023-07-20T07:58:58;3.67;;;2.00;;
38725;SDS011;24474;48.906;8.808;2023-07-20T08:01:24;3.50;;;1.75;;
38725;SDS011;24474;48.906;8.808;2023-07-20T08:03:50;3.40;;;1.60;;
38725;SDS011;24474;48.906;8.808;2023-07-20T08:06:16;4.70;;;1.70;;
38725;SDS011;24474;48.906;8.808;2023-07-20T08:08:42;7.97;;;1.38;;
38725;SDS011;24474;48.906;8.808;2023-07-20T08:11:08;4.50;;;1.73;;
38725;SDS011;24474;48.906;8.808;2023-07-20T08:13:34;2.90;;;1.40;;
38725;SDS011;24474;48.906;8.808;2023-07-20T08:16:00;4.25;;;1.50;;
38725;SDS011;24474;48.906;8.808;2023-07-20T08:18:27;4.20;;;1.50;;
38725;SDS011;24474;48.906;8.808;2023-07-20T08:20:53;4.43;;;1.30;;
38725;SDS011;24474;48.906;8.808;2023-07-20T08:23:19;2.38;;;1.30;;
38725;SDS011;24474;48.906;8.808;2023-07-20T08:25:45;5.05;;;1.60;;
38725;SDS011;24474;48.906;8.808;2023-07-20T08:28:11;2.85;;;1.48;;
38725;SDS011;24474;48.906;8.808;2023-07-20T08:30:42;6.97;;;1.60;;
38725;SDS011;24474;48.906;8.808;2023-07-20T08:33:15;5.18;;;1.60;;
38725;SDS011;24474;48.906;8.808;2023-07-20T08:35:44;6.45;;;1.40;;
38725;SDS011;24474;48.906;8.808;2023-07-20T08:38:10;2.30;;;1.48;;
38725;SDS011;24474;48.906;8.808;2023-07-20T08:40:39;3.95;;;1.63;;
38725;SDS011;24474;48.906;8.808;2023-07-20T08:43:06;2.40;;;1.30;;
38725;SDS011;24474;48.906;8.808;2023-07-20T08:45:33;2.80;;;1.40;;
38725;SDS011;24474;48.906;8.808;2023-07-20T08:48:01;1.95;;;1.40;;
38725;SDS011;24474;48.906;8.808;2023-07-20T08:50:28;2.35;;;1.20;;
38725;SDS011;24474;48.906;8.808;2023-07-20T08:52:56;3.10;;;1.30;;
38725;SDS011;24474;48.906;8.808;2023-07-20T08:55:23;8.15;;;1.40;;
38725;SDS011;24474;48.906;8.808;2023-07-20T08:57:52;6.80;;;1.50;;
38725;SDS011;24474;48.906;8.808;2023-07-20T09:00:19;3.38;;;1.58;;
38725;SDS011;24474;48.906;8.808;2023-07-20T09:02:46;3.70;;;1.30;;
38725;SDS011;24474;48.906;8.808;2023-07-20T09:05:14;3.13;;;1.30;;
38725;SDS011;24474;48.906;8.808;2023-07-20T09:07:40;2.40;;;1.25;;
38725;SDS011;24474;48.906;8.808;2023-07-20T09:10:06;2.20;;;1.30;;
38725;SDS011;24474;48.906;8.808;2023-07-20T09:12:37;3.35;;;1.20;;
38725;SDS011;24474;48.906;8.808;2023-07-20T09:15:04;2.65;;;1.13;;
38725;SDS011;24474;48.906;8.808;2023-07-20T09:17:31;2.88;;;1.00;;
38725;SDS011;24474;48.906;8.808;2023-07-20T09:19:56;1.98;;;1.00;;
38725;SDS011;24474;48.906;8.808;2023-07-20T09:22:22;2.30;;;1.13;;
38725;SDS011;24474;48.906;8.808;2023-07-20T09:24:55;2.50;;;0.82;;
38725;SDS011;24474;48.906;8.808;2023-07-20T09:27:21;3.38;;;1.20;;
38725;SDS011;24474;48.906;8.808;2023-07-20T09:29:50;4.13;;;1.05;;
38725;SDS011;24474;48.906;8.808;2023-07-20T09:32:20;4.40;;;1.25;;
38725;SDS011;24474;48.906;8.808;2023-07-20T09:34:46;2.50;;;1.08;;
38725;SDS011;24474;48.906;8.808;2023-07-20T09:37:12;4.75;;;1.10;;
38725;SDS011;24474;48.906;8.808;2023-07-20T09:39:45;1.67;;;1.23;;
38725;SDS011;24474;48.906;8.808;2023-07-20T09:42:11;4.78;;;1.20;;
38725;SDS011;24474;48.906;8.808;2023-07-20T09:44:38;3.28;;;1.10;;
38725;SDS011;24474;48.906;8.808;2023-07-20T09:47:04;4.07;;;1.20;;
38725;SDS011;24474;48.906;8.808;2023-07-20T09:49:30;2.83;;;1.10;;
38725;SDS011;24474;48.906;8.808;2023-07-20T09:51:59;2.53;;;1.20;;
38725;SDS011;24474;48.906;8.808;2023-07-20T09:54:27;2.47;;;1.00;;
38725;SDS011;24474;48.906;8.808;2023-07-20T09:56:54;2.47;;;1.20;;
38725;SDS011;24474;48.906;8.808;2023-07-20T09:59:21;2.22;;;1.00;;
38725;SDS011;24474;48.906;8.808;2023-07-20T10:01:47;2.15;;;1.00;;
38725;SDS011;24474;48.906;8.808;2023-07-20T10:04:14;1.77;;;0.88;;
38725;SDS011;24474;48.906;8.808;2023-07-20T10:06:43;3.72;;;1.00;;
38725;SDS011;24474;48.906;8.808;2023-07-20T10:09:12;2.63;;;1.05;;
38725;SDS011;24474;48.906;8.808;2023-07-20T10:11:41;2.53;;;1.08;;
38725;SDS011;24474;48.906;8.808;2023-07-20T10:14:16;1.35;;;0.80;;
38725;SDS011;24474;48.906;8.808;2023-07-20T10:16:51;1.93;;;1.00;;
38725;SDS011;24474;48.906;8.808;2023-07-20T10:19:23;2.40;;;1.10;;
38725;SDS011;24474;48.906;8.808;2023-07-20T10:22:10;3.30;;;1.08;;
38725;SDS011;24474;48.906;8.808;2023-07-20T10:24:41;1.38;;;0.93;;
38725;SDS011;24474;48.906;8.808;2023-07-20T10:27:10;2.25;;;0.98;;
38725;SDS011;24474;48.906;8.808;2023-07-20T10:29:35;3.55;;;1.55;;
38725;SDS011;24474;48.906;8.808;2023-07-20T10:32:02;2.58;;;1.30;;
38725;SDS011;24474;48.906;8.808;2023-07-20T10:34:29;3.00;;;1.30;;
38725;SDS011;24474;48.906;8.808;2023-07-20T10:36:54;3.88;;;1.35;;
38725;SDS011;24474;48.906;8.808;2023-07-20T10:39:32;2.50;;;0.98;;
38725;SDS011;24474;48.906;8.808;2023-07-20T10:42:02;2.45;;;1.00;;
38725;SDS011;24474;48.906;8.808;2023-07-20T10:44:37;2.45;;;1.10;;
38725;SDS011;24474;48.906;8.808;2023-07-20T10:47:09;3.28;;;1.10;;
38725;SDS011;24474;48.906;8.808;2023-07-20T10:49:38;2.65;;;1.10;;
38725;SDS011;24474;48.906;8.808;2023-07-20T10:52:25;4.13;;;1.02;;
38725;SDS011;24474;48.906;8.808;2023-07-20T10:54:51;3.47;;;1.00;;
38725;SDS011;24474;48.906;8.808;2023-07-20T10:57:24;2.45;;;1.20;;
38725;SDS011;24474;48.906;8.808;2023-07-20T10:59:53;2.78;;;1.30;;
38725;SDS011;24474;48.906;8.808;2023-07-20T11:02:43;2.72;;;1.17;;
38725;SDS011;24474;48.906;8.808;2023-07-20T11:08:05;1.38;;;0.90;;
38725;SDS011;24474;48.906;8.808;2023-07-20T11:10:37;2.25;;;0.90;;
38725;SDS011;24474;48.906;8.808;2023-07-20T11:16:01;2.33;;;1.10;;
38725;SDS011;24474;48.906;8.808;2023-07-20T11:20:56;2.63;;;1.20;;
38725;SDS011;24474;48.906;8.808;2023-07-20T11:23:22;4.90;;;1.20;;
38725;SDS011;24474;48.906;8.808;2023-07-20T11:25:48;5.07;;;1.20;;
38725;SDS011;24474;48.906;8.808;2023-07-20T11:28:14;1.92;;;0.98;;
38725;SDS011;24474;48.906;8.808;2023-07-20T11:30:40;2.08;;;1.20;;
38725;SDS011;24474;48.906;8.808;2023-07-20T11:33:09;1.98;;;0.90;;
38725;SDS011;24474;48.906;8.808;2023-07-20T11:35:36;2.75;;;1.17;;
38725;SDS011;24474;48.906;8.808;2023-07-20T11:38:17;1.73;;;1.00;;
38725;SDS011;24474;48.906;8.808;2023-07-20T11:40:43;2.00;;;1.10;;
38725;SDS011;24474;48.906;8.808;2023-07-20T11:43:11;2.33;;;1.10;;
38725;SDS011;24474;48.906;8.808;2023-07-20T11:45:40;2.03;;;0.80;;
38725;SDS011;24474;48.906;8.808;2023-07-20T11:48:05;2.63;;;1.15;;
38725;SDS011;24474;48.906;8.808;2023-07-20T11:50:31;4.13;;;1.13;;
38725;SDS011;24474;48.906;8.808;2023-07-20T11:52:57;1.85;;;0.90;;
38725;SDS011;24474;48.906;8.808;2023-07-20T11:55:23;3.25;;;1.00;;
38725;SDS011;24474;48.906;8.808;2023-07-20T11:58:04;3.90;;;1.10;;
38725;SDS011;24474;48.906;8.808;2023-07-20T12:00:31;2.42;;;1.10;;
38725;SDS011;24474;48.906;8.808;2023-07-20T12:02:58;2.58;;;1.10;;
38725;SDS011;24474;48.906;8.808;2023-07-20T12:05:24;3.53;;;0.95;;
38725;SDS011;24474;48.906;8.808;2023-07-20T12:07:51;3.33;;;1.20;;
38725;SDS011;24474;48.906;8.808;2023-07-20T12:10:22;1.52;;;1.00;;
38725;SDS011;24474;48.906;8.808;2023-07-20T12:12:50;1.88;;;1.00;;
38725;SDS011;24474;48.906;8.808;2023-07-20T12:15:17;3.22;;;1.20;;
38725;SDS011;24474;48.906;8.808;2023-07-20T12:17:45;4.15;;;1.20;;
38725;SDS011;24474;48.906;8.808;2023-07-20T12:20:23;4.75;;;1.00;;
38725;SDS011;24474;48.906;8.808;2023-07-20T12:22:55;2.25;;;0.93;;
38725;SDS011;24474;48.906;8.808;2023-07-20T12:25:23;2.13;;;1.35;;
38725;SDS011;24474;48.906;8.808;2023-07-20T12:27:49;2.42;;;0.77;;
38725;SDS011;24474;48.906;8.808;2023-07-20T12:30:14;1.27;;;0.80;;
38725;SDS011;24474;48.906;8.808;2023-07-20T12:32:40;4.50;;;1.10;;
38725;SDS011;24474;48.906;8.808;2023-07-20T12:35:06;2.15;;;0.80;;
38725;SDS011;24474;48.906;8.808;2023-07-20T12:37:32;2.05;;;1.15;;
38725;SDS011;24474;48.906;8.808;2023-07-20T12:39:57;2.95;;;0.90;;
38725;SDS011;24474;48.906;8.808;2023-07-20T12:42:23;2.83;;;1.05;;
38725;SDS011;24474;48.906;8.808;2023-07-20T12:44:50;2.67;;;1.10;;
38725;SDS011;24474;48.906;8.808;2023-07-20T12:47:18;2.28;;;1.13;;
38725;SDS011;24474;48.906;8.808;2023-07-20T12:49:45;3.22;;;1.05;;
38725;SDS011;24474;48.906;8.808;2023-07-20T12:52:13;1.48;;;1.00;;
38725;SDS011;24474;48.906;8.808;2023-07-20T12:54:39;4.22;;;1.00;;
38725;SDS011;24474;48.906;8.808;2023-07-20T12:57:06;2.67;;;0.90;;
38725;SDS011;24474;48.906;8.808;2023-07-20T12:59:33;2.50;;;1.17;;
38725;SDS011;24474;48.906;8.808;2023-07-20T13:02:00;1.75;;;1.00;;
38725;SDS011;24474;48.906;8.808;2023-07-20T13:04:27;1.83;;;0.90;;
38725;SDS011;24474;48.906;8.808;2023-07-20T13:06:54;2.45;;;1.10;;
38725;SDS011;24474;48.906;8.808;2023-07-20T13:09:21;3.50;;;0.95;;
38725;SDS011;24474;48.906;8.808;2023-07-20T13:11:49;1.75;;;0.80;;
38725;SDS011;24474;48.906;8.808;2023-07-20T13:14:15;1.85;;;0.95;;
38725;SDS011;24474;48.906;8.808;2023-07-20T13:16:41;1.50;;;0.80;;
38725;SDS011;24474;48.906;8.808;2023-07-20T13:19:11;3.30;;;0.98;;
38725;SDS011;24474;48.906;8.808;2023-07-20T13:21:37;3.70;;;0.85;;
38725;SDS011;24474;48.906;8.808;2023-07-20T13:24:02;1.45;;;1.00;;
38725;SDS011;24474;48.906;8.808;2023-07-20T13:26:29;3.65;;;0.90;;
38725;SDS011;24474;48.906;8.808;2023-07-20T13:28:54;2.28;;;0.80;;
38725;SDS011;24474;48.906;8.808;2023-07-20T13:31:20;1.90;;;0.90;;
38725;SDS011;24474;48.906;8.808;2023-07-20T13:33:46;1.88;;;0.90;;
38725;SDS011;24474;48.906;8.808;2023-07-20T13:36:12;3.00;;;0.90;;
38725;SDS011;24474;48.906;8.808;2023-07-20T13:38:37;2.00;;;1.02;;
38725;SDS011;24474;48.906;8.808;2023-07-20T13:41:03;3.38;;;0.90;;
38725;SDS011;24474;48.906;8.808;2023-07-20T13:43:29;1.42;;;0.80;;
38725;SDS011;24474;48.906;8.808;2023-07-20T13:45:54;1.45;;;0.85;;
38725;SDS011;24474;48.906;8.808;2023-07-20T13:48:20;3.70;;;0.75;;
38725;SDS011;24474;48.906;8.808;2023-07-20T13:50:48;1.20;;;0.73;;
38725;SDS011;24474;48.906;8.808;2023-07-20T13:53:14;1.67;;;0.85;;
38725;SDS011;24474;48.906;8.808;2023-07-20T13:55:41;1.60;;;0.90;;
38725;SDS011;24474;48.906;8.808;2023-07-20T13:58:07;3.90;;;0.90;;
38725;SDS011;24474;48.906;8.808;2023-07-20T14:00:35;1.55;;;0.73;;
38725;SDS011;24474;48.906;8.808;2023-07-20T14:03:00;2.97;;;0.82;;
38725;SDS011;24474;48.906;8.808;2023-07-20T14:05:26;0.88;;;0.65;;
38725;SDS011;24474;48.906;8.808;2023-07-20T14:07:53;2.28;;;0.80;;
38725;SDS011;24474;48.906;8.808;2023-07-20T14:10:19;2.38;;;0.80;;
38725;SDS011;24474;48.906;8.808;2023-07-20T14:12:45;5.85;;;0.88;;
38725;SDS011;24474;48.906;8.808;2023-07-20T14:15:10;3.33;;;0.68;;
38725;SDS011;24474;48.906;8.808;2023-07-20T14:17:36;2.58;;;0.90;;
38725;SDS011;24474;48.906;8.808;2023-07-20T14:20:03;1.20;;;0.75;;
38725;SDS011;24474;48.906;8.808;2023-07-20T14:22:31;0.82;;;0.60;;
38725;SDS011;24474;48.906;8.808;2023-07-20T14:24:59;1.77;;;0.80;;
38725;SDS011;24474;48.906;8.808;2023-07-20T14:27:25;1.70;;;0.90;;
38725;SDS011;24474;48.906;8.808;2023-07-20T14:29:51;2.15;;;0.90;;
38725;SDS011;24474;48.906;8.808;2023-07-20T14:32:18;1.15;;;0.75;;
38725;SDS011;24474;48.906;8.808;2023-07-20T14:34:44;1.02;;;0.68;;
38725;SDS011;24474;48.906;8.808;2023-07-20T14:37:09;1.02;;;0.70;;
38725;SDS011;24474;48.906;8.808;2023-07-20T14:39:35;1.85;;;0.95;;
38725;SDS011;24474;48.906;8.808;2023-07-20T14:42:01;0.95;;;0.77;;
38725;SDS011;24474;48.906;8.808;2023-07-20T14:44:28;1.85;;;0.90;;
38725;SDS011;24474;48.906;8.808;2023-07-20T14:46:54;1.42;;;0.80;;
38725;SDS011;24474;48.906;8.808;2023-07-20T14:49:20;2.55;;;0.80;;
38725;SDS011;24474;48.906;8.808;2023-07-20T14:51:46;1.85;;;0.80;;
38725;SDS011;24474;48.906;8.808;2023-07-20T14:54:12;2.63;;;0.90;;
38725;SDS011;24474;48.906;8.808;2023-07-20T14:56:38;1.17;;;0.82;;
38725;SDS011;24474;48.906;8.808;2023-07-20T14:59:09;2.28;;;0.90;;
38725;SDS011;24474;48.906;8.808;2023-07-20T15:01:34;1.20;;;0.75;;
38725;SDS011;24474;48.906;8.808;2023-07-20T15:04:00;2.53;;;0.90;;